createdAt,value
2016-04-25T00:00:01.809Z,0
2016-04-25T00:01:02.000Z,0
2016-04-25T00:02:01.768Z,0
2016-04-25T00:03:01.754Z,0
2016-04-25T00:04:01.726Z,0
2016-04-25T00:05:01.698Z,0
2016-04-25T00:06:01.685Z,0
2016-04-25T00:07:01.671Z,0
2016-04-25T00:08:01.643Z,0
2016-04-25T00:09:01.645Z,0
2016-04-25T00:10:01.602Z,0
2016-04-25T00:11:01.574Z,0
2016-04-25T00:12:01.560Z,0
2016-04-25T00:13:01.906Z,0
2016-04-25T00:14:01.534Z,0
2016-04-25T00:15:01.506Z,0
2016-04-25T00:16:01.493Z,0
2016-04-25T00:17:01.480Z,0
2016-04-25T00:18:01.451Z,0
2016-04-25T00:19:01.422Z,0
2016-04-25T00:20:01.394Z,0
2016-04-25T00:21:01.366Z,0
2016-04-25T00:22:01.071Z,0
2016-04-25T00:23:01.345Z,0
2016-04-25T00:24:01.317Z,0
2016-04-25T00:25:01.304Z,0
2016-04-25T00:26:01.306Z,0
2016-04-25T00:27:02.590Z,0
2016-04-25T00:28:01.859Z,0
2016-04-25T00:29:01.205Z,0
2016-04-25T00:30:01.193Z,0
2016-04-25T00:31:01.179Z,0
2016-04-25T00:32:01.182Z,0
2016-04-25T00:33:01.154Z,0
2016-04-25T00:34:01.109Z,0
2016-04-25T00:35:01.112Z,0
2016-04-25T00:36:01.083Z,0
2016-04-25T00:37:01.071Z,0
2016-04-25T00:38:01.058Z,0
2016-04-25T00:39:01.014Z,0
2016-04-25T00:40:00.985Z,0
2016-04-25T00:41:00.988Z,0
2016-04-25T00:42:00.802Z,0
2016-04-25T00:43:01.150Z,0
2016-04-25T00:44:00.918Z,0
2016-04-25T00:45:00.921Z,0
2016-04-25T00:46:01.032Z,0
2016-04-25T00:47:00.864Z,0
2016-04-25T00:48:00.835Z,0
2016-04-25T00:49:00.822Z,0
2016-04-25T00:50:00.793Z,0
2016-04-25T00:51:00.780Z,0
2016-04-25T00:52:00.767Z,0
2016-04-25T00:53:00.739Z,0
2016-04-25T00:54:00.726Z,0
2016-04-25T00:55:00.698Z,0
2016-04-25T00:56:00.668Z,0
2016-04-25T00:57:01.016Z,0
2016-04-25T00:58:00.393Z,0
2016-04-25T00:59:00.615Z,0
2016-04-25T01:00:00.586Z,0
2016-04-25T01:01:00.588Z,0
2016-04-25T01:02:00.559Z,0
2016-04-25T01:03:00.532Z,0
2016-04-25T01:04:00.503Z,0
2016-04-25T01:05:00.490Z,0
2016-04-25T01:06:00.477Z,0
2016-04-25T01:07:00.464Z,0
2016-04-25T01:08:00.420Z,0
2016-04-25T01:09:00.407Z,0
2016-04-25T01:10:00.378Z,0
2016-04-25T01:11:00.365Z,0
2016-04-25T01:12:01.039Z,0
2016-04-25T01:13:00.808Z,0
2016-04-25T01:14:00.311Z,0
2016-04-25T01:15:00.282Z,0
2016-04-25T01:16:00.113Z,0
2016-04-25T01:17:00.241Z,0
2016-04-25T01:18:00.228Z,0
2016-04-25T01:19:00.215Z,0
2016-04-25T01:20:00.202Z,0
2016-04-25T01:21:00.173Z,0
2016-04-25T01:22:00.130Z,0
2016-04-25T01:23:00.116Z,0
2016-04-25T01:24:00.103Z,0
2016-04-25T01:25:00.074Z,0
2016-04-25T01:26:00.062Z,0
2016-04-25T01:27:00.299Z,0
2016-04-25T01:28:00.771Z,0
2016-04-25T01:28:59.992Z,0
2016-04-25T01:29:59.995Z,0
2016-04-25T01:30:59.966Z,0
2016-04-25T01:31:59.937Z,0
2016-04-25T01:32:59.925Z,0
2016-04-25T01:33:59.912Z,0
2016-04-25T01:34:59.883Z,0
2016-04-25T01:35:59.854Z,0
2016-04-25T01:36:59.826Z,0
2016-04-25T01:37:59.813Z,0
2016-04-25T01:38:59.800Z,0
2016-04-25T01:39:59.772Z,0
2016-04-25T01:40:59.759Z,0
2016-04-25T01:41:59.605Z,0
2016-04-25T01:43:00.138Z,0
2016-04-25T01:43:59.704Z,0
2016-04-25T01:44:59.660Z,0
2016-04-25T01:45:59.663Z,0
2016-04-25T01:46:59.634Z,0
2016-04-25T01:47:59.621Z,0
2016-04-25T01:48:59.593Z,0
2016-04-25T01:49:59.580Z,0
2016-04-25T01:50:59.549Z,0
2016-04-25T01:51:59.535Z,0
2016-04-25T01:52:59.507Z,0
2016-04-25T01:53:59.322Z,0
2016-04-25T01:54:59.482Z,0
2016-04-25T01:55:59.437Z,0
2016-04-25T01:56:59.424Z,0
2016-04-25T01:57:59.285Z,0
2016-04-25T01:58:59.382Z,0
2016-04-25T01:59:59.370Z,0
2016-04-25T02:00:59.372Z,0
2016-04-25T02:01:59.313Z,0
2016-04-25T02:02:59.284Z,0
2016-04-25T02:03:59.271Z,0
2016-04-25T02:04:59.258Z,0
2016-04-25T02:05:59.245Z,0
2016-04-25T02:06:59.232Z,0
2016-04-25T02:07:59.204Z,0
2016-04-25T02:08:59.237Z,0
2016-04-25T02:09:59.147Z,0
2016-04-25T02:10:59.133Z,0
2016-04-25T02:11:59.121Z,0
2016-04-25T02:12:59.483Z,0
2016-04-25T02:13:59.078Z,0
2016-04-25T02:14:59.050Z,0
2016-04-25T02:15:59.053Z,0
2016-04-25T02:16:58.994Z,0
2016-04-25T02:17:59.043Z,0
2016-04-25T02:18:58.983Z,0
2016-04-25T02:19:58.954Z,0
2016-04-25T02:20:58.941Z,0
2016-04-25T02:21:58.898Z,0
2016-04-25T02:22:58.900Z,0
2016-04-25T02:23:58.855Z,0
2016-04-25T02:24:58.843Z,0
2016-04-25T02:25:58.829Z,0
2016-04-25T02:26:58.818Z,0
2016-04-25T02:27:59.352Z,0
2016-04-25T02:28:58.759Z,0
2016-04-25T02:29:58.747Z,0
2016-04-25T02:30:58.734Z,0
2016-04-25T02:31:58.690Z,0
2016-04-25T02:32:58.677Z,0
2016-04-25T02:33:58.665Z,0
2016-04-25T02:34:58.636Z,0
2016-04-25T02:35:58.826Z,0
2016-04-25T02:36:58.609Z,0
2016-04-25T02:37:58.597Z,0
2016-04-25T02:38:58.567Z,0
2016-04-25T02:39:58.555Z,0
2016-04-25T02:40:58.512Z,0
2016-04-25T02:41:58.498Z,0
2016-04-25T02:42:58.892Z,0
2016-04-25T02:43:58.456Z,0
2016-04-25T02:44:58.475Z,0
2016-04-25T02:45:58.431Z,0
2016-04-25T02:46:58.387Z,0
2016-04-25T02:47:58.374Z,0
2016-04-25T02:48:58.361Z,0
2016-04-25T02:49:58.333Z,0
2016-04-25T02:50:58.319Z,0
2016-04-25T02:51:58.291Z,0
2016-04-25T02:52:58.263Z,0
2016-04-25T02:53:58.249Z,0
2016-04-25T02:54:58.236Z,0
2016-04-25T02:55:58.207Z,0
2016-04-25T02:56:58.211Z,0
2016-04-25T02:57:58.229Z,0
2016-04-25T02:58:58.154Z,0
2016-04-25T02:59:58.141Z,0
2016-04-25T03:00:58.112Z,0
2016-04-25T03:01:58.083Z,0
2016-04-25T03:02:58.054Z,0
2016-04-25T03:03:58.043Z,0
2016-04-25T03:04:58.045Z,0
2016-04-25T03:05:58.031Z,0
2016-04-25T03:06:58.129Z,0
2016-04-25T03:07:57.990Z,0
2016-04-25T03:08:57.976Z,0
2016-04-25T03:09:57.933Z,0
2016-04-25T03:10:57.904Z,0
2016-04-25T03:11:57.892Z,0
2016-04-25T03:12:57.847Z,0
2016-04-25T03:13:57.740Z,0
2016-04-25T03:14:57.837Z,0
2016-04-25T03:15:57.792Z,0
2016-04-25T03:16:57.983Z,0
2016-04-25T03:17:57.955Z,0
2016-04-25T03:18:57.753Z,0
2016-04-25T03:19:57.726Z,0
2016-04-25T03:20:57.681Z,0
2016-04-25T03:21:57.668Z,0
2016-04-25T03:22:57.655Z,0
2016-04-25T03:23:57.658Z,0
2016-04-25T03:24:57.629Z,0
2016-04-25T03:25:56.116Z,0
2016-04-25T03:26:57.572Z,0
2016-04-25T03:27:57.653Z,0
2016-04-25T03:28:57.530Z,0
2016-04-25T03:29:57.533Z,0
2016-04-25T03:30:57.489Z,0
2016-04-25T03:31:57.492Z,0
2016-04-25T03:32:57.464Z,0
2016-04-25T03:33:57.434Z,0
2016-04-25T03:34:57.422Z,0
2016-04-25T03:35:57.409Z,0
2016-04-25T03:36:57.381Z,0
2016-04-25T03:37:57.352Z,0
2016-04-25T03:38:57.339Z,0
2016-04-25T03:39:57.310Z,0
2016-04-25T03:40:57.297Z,0
2016-04-25T03:41:57.269Z,0
2016-04-25T03:42:57.115Z,0
2016-04-25T03:43:56.775Z,0
2016-04-25T03:44:57.198Z,0
2016-04-25T03:45:57.030Z,0
2016-04-25T03:46:57.173Z,0
2016-04-25T03:47:57.129Z,0
2016-04-25T03:48:57.131Z,0
2016-04-25T03:49:57.119Z,0
2016-04-25T03:50:57.106Z,0
2016-04-25T03:51:57.061Z,0
2016-04-25T03:52:57.049Z,0
2016-04-25T03:53:57.020Z,0
2016-04-25T03:54:57.007Z,0
2016-04-25T03:55:56.978Z,0
2016-04-25T03:56:56.950Z,0
2016-04-25T03:57:57.234Z,0
2016-04-25T03:58:57.065Z,0
2016-04-25T03:59:56.895Z,0
2016-04-25T04:00:56.866Z,0
2016-04-25T04:01:56.855Z,0
2016-04-25T04:02:56.826Z,0
2016-04-25T04:03:56.828Z,0
2016-04-25T04:04:56.784Z,0
2016-04-25T04:05:56.771Z,0
2016-04-25T04:06:56.758Z,0
2016-04-25T04:07:56.729Z,0
2016-04-25T04:08:56.732Z,0
2016-04-25T04:09:56.704Z,0
2016-04-25T04:10:56.691Z,0
2016-04-25T04:11:56.662Z,0
2016-04-25T04:12:55.789Z,5
2016-04-25T04:13:56.667Z,5
2016-04-25T04:14:56.593Z,5
2016-04-25T04:15:56.564Z,5
2016-04-25T04:16:56.567Z,5
2016-04-25T04:17:56.522Z,5
2016-04-25T04:18:56.509Z,5
2016-04-25T04:19:56.481Z,5
2016-04-25T04:20:56.467Z,10
2016-04-25T04:21:56.299Z,10
2016-04-25T04:22:56.442Z,10
2016-04-25T04:23:56.429Z,10
2016-04-25T04:24:56.385Z,10
2016-04-25T04:25:56.591Z,15
2016-04-25T04:26:56.343Z,15
2016-04-25T04:27:56.050Z,15
2016-04-25T04:28:57.802Z,15
2016-04-25T04:29:56.274Z,15
2016-04-25T04:30:56.276Z,15
2016-04-25T04:31:56.466Z,15
2016-04-25T04:32:56.218Z,15
2016-04-25T04:33:56.191Z,15
2016-04-25T04:34:56.177Z,20
2016-04-25T04:35:56.180Z,20
2016-04-25T04:36:56.151Z,20
2016-04-25T04:37:56.123Z,20
2016-04-25T04:38:56.110Z,20
2016-04-25T04:39:56.081Z,20
2016-04-25T04:40:56.068Z,25
2016-04-25T04:41:56.040Z,25
2016-04-25T04:42:55.793Z,25
2016-04-25T04:43:56.139Z,25
2016-04-25T04:44:55.985Z,25
2016-04-25T04:45:55.956Z,25
2016-04-25T04:46:55.960Z,30
2016-04-25T04:47:55.915Z,30
2016-04-25T04:48:55.918Z,30
2016-04-25T04:49:55.873Z,30
2016-04-25T04:50:55.939Z,30
2016-04-25T04:51:55.958Z,30
2016-04-25T04:52:55.851Z,30
2016-04-25T04:53:55.838Z,35
2016-04-25T04:54:55.794Z,35
2016-04-25T04:55:55.749Z,35
2016-04-25T04:56:55.736Z,35
2016-04-25T04:57:56.192Z,35
2016-04-25T04:58:55.507Z,35
2016-04-25T04:59:55.682Z,35
2016-04-25T05:00:55.653Z,35
2016-04-25T05:01:55.641Z,40
2016-04-25T05:02:55.627Z,40
2016-04-25T05:03:55.583Z,40
2016-04-25T05:04:54.821Z,40
2016-04-25T05:05:55.761Z,40
2016-04-25T05:06:55.529Z,45
2016-04-25T05:07:55.516Z,45
2016-04-25T05:08:55.503Z,45
2016-04-25T05:09:55.506Z,50
2016-04-25T05:10:55.462Z,50
2016-04-25T05:11:55.465Z,50
2016-04-25T05:12:55.612Z,50
2016-04-25T05:13:56.221Z,50
2016-04-25T05:14:55.503Z,55
2016-04-25T05:15:55.533Z,60
2016-04-25T05:16:55.533Z,60
2016-04-25T05:17:55.386Z,60
2016-04-25T05:18:55.530Z,65
2016-04-25T05:19:55.532Z,65
2016-04-25T05:20:55.551Z,65
2016-04-25T05:21:55.616Z,70
2016-04-25T05:22:55.548Z,70
2016-04-25T05:23:55.510Z,70
2016-04-25T05:24:55.488Z,75
2016-04-25T05:25:55.464Z,70
2016-04-25T05:26:55.457Z,75
2016-04-25T05:27:55.337Z,70
2016-04-25T05:28:55.764Z,75
2016-04-25T05:29:55.393Z,75
2016-04-25T05:30:55.383Z,80
2016-04-25T05:31:55.371Z,80
2016-04-25T05:32:55.359Z,85
2016-04-25T05:33:55.331Z,90
2016-04-25T05:34:55.303Z,90
2016-04-25T05:35:55.292Z,90
2016-04-25T05:36:55.279Z,100
2016-04-25T05:37:55.267Z,100
2016-04-25T05:38:55.222Z,95
2016-04-25T05:39:55.242Z,105
2016-04-25T05:40:55.198Z,115
2016-04-25T05:41:55.170Z,140
2016-04-25T05:42:55.344Z,140
2016-04-25T05:43:56.082Z,130
2016-04-25T05:44:55.115Z,140
2016-04-25T05:45:55.102Z,135
2016-04-25T05:46:55.074Z,130
2016-04-25T05:47:55.077Z,110
2016-04-25T05:48:55.095Z,105
2016-04-25T05:49:55.036Z,100
2016-04-25T05:50:55.022Z,95
2016-04-25T05:51:55.055Z,90
2016-04-25T05:52:54.981Z,80
2016-04-25T05:53:54.936Z,75
2016-04-25T05:54:54.907Z,80
2016-04-25T05:55:54.177Z,85
2016-04-25T05:56:54.960Z,80
2016-04-25T05:57:54.869Z,90
2016-04-25T05:58:54.950Z,80
2016-04-25T05:59:54.827Z,80
2016-04-25T06:00:54.658Z,80
2016-04-25T06:01:54.801Z,80
2016-04-25T06:02:54.774Z,75
2016-04-25T06:03:54.760Z,75
2016-04-25T06:04:54.731Z,70
2016-04-25T06:05:54.719Z,75
2016-04-25T06:06:54.706Z,80
2016-04-25T06:07:54.677Z,85
2016-04-25T06:08:54.665Z,95
2016-04-25T06:09:54.651Z,95
2016-04-25T06:10:54.842Z,95
2016-04-25T06:11:54.609Z,100
2016-04-25T06:12:54.597Z,105
2016-04-25T06:13:55.834Z,110
2016-04-25T06:14:54.571Z,110
2016-04-25T06:15:54.558Z,105
2016-04-25T06:16:54.717Z,110
2016-04-25T06:17:54.501Z,110
2016-04-25T06:18:54.488Z,110
2016-04-25T06:19:54.459Z,110
2016-04-25T06:20:54.478Z,105
2016-04-25T06:21:54.418Z,105
2016-04-25T06:22:54.406Z,100
2016-04-25T06:23:54.409Z,100
2016-04-25T06:24:54.348Z,95
2016-04-25T06:25:54.351Z,95
2016-04-25T06:26:54.370Z,95
2016-04-25T06:27:54.170Z,105
2016-04-25T06:28:54.125Z,130
2016-04-25T06:29:55.003Z,155
2016-04-25T06:30:54.240Z,125
2016-04-25T06:31:54.242Z,130
2016-04-25T06:32:54.245Z,130
2016-04-25T06:33:54.186Z,125
2016-04-25T06:34:54.172Z,130
2016-04-25T06:35:54.161Z,135
2016-04-25T06:36:54.131Z,135
2016-04-25T06:37:54.118Z,125
2016-04-25T06:38:54.106Z,130
2016-04-25T06:39:54.092Z,125
2016-04-25T06:40:54.064Z,125
2016-04-25T06:41:54.035Z,135
2016-04-25T06:42:54.022Z,125
2016-04-25T06:43:54.759Z,125
2016-04-25T06:44:55.153Z,125
2016-04-25T06:45:53.968Z,125
2016-04-25T06:46:53.940Z,130
2016-04-25T06:47:53.910Z,135
2016-04-25T06:48:53.914Z,130
2016-04-25T06:49:53.900Z,140
2016-04-25T06:50:53.888Z,165
2016-04-25T06:51:53.859Z,215
2016-04-25T06:52:53.846Z,140
2016-04-25T06:53:53.817Z,155
2016-04-25T06:54:53.790Z,210
2016-04-25T06:55:53.776Z,195
2016-04-25T06:56:53.764Z,135
2016-04-25T06:57:53.734Z,140
2016-04-25T06:58:53.784Z,145
2016-04-25T06:59:54.303Z,180
2016-04-25T07:00:53.978Z,125
2016-04-25T07:01:53.745Z,145
2016-04-25T07:02:53.779Z,160
2016-04-25T07:03:53.766Z,170
2016-04-25T07:04:53.722Z,185
2016-04-25T07:05:53.788Z,135
2016-04-25T07:06:53.728Z,135
2016-04-25T07:07:53.746Z,135
2016-04-25T07:08:53.733Z,140
2016-04-25T07:09:53.783Z,145
2016-04-25T07:10:53.660Z,145
2016-04-25T07:11:53.507Z,155
2016-04-25T07:12:53.478Z,150
2016-04-25T07:13:53.730Z,150
2016-04-25T07:14:53.437Z,140
2016-04-25T07:15:53.408Z,150
2016-04-25T07:16:53.410Z,150
2016-04-25T07:17:53.382Z,150
2016-04-25T07:18:53.385Z,165
2016-04-25T07:19:53.357Z,170
2016-04-25T07:20:53.343Z,175
2016-04-25T07:21:53.315Z,200
2016-04-25T07:22:53.301Z,185
2016-04-25T07:23:53.273Z,200
2016-04-25T07:24:53.260Z,200
2016-04-25T07:25:53.248Z,170
2016-04-25T07:26:53.219Z,155
2016-04-25T07:27:53.190Z,190
2016-04-25T07:28:53.209Z,230
2016-04-25T07:29:53.164Z,215
2016-04-25T07:30:53.151Z,225
2016-04-25T07:31:53.139Z,210
2016-04-25T07:32:53.111Z,200
2016-04-25T07:33:53.097Z,225
2016-04-25T07:34:53.084Z,210
2016-04-25T07:35:53.056Z,200
2016-04-25T07:36:53.042Z,210
2016-04-25T07:37:53.030Z,260
2016-04-25T07:38:53.016Z,255
2016-04-25T07:39:52.989Z,260
2016-04-25T07:40:52.975Z,240
2016-04-25T07:41:52.978Z,180
2016-04-25T07:42:52.965Z,185
2016-04-25T07:43:52.968Z,180
2016-04-25T07:44:52.923Z,185
2016-04-25T07:45:52.911Z,190
2016-04-25T07:46:52.866Z,200
2016-04-25T07:47:52.932Z,190
2016-04-25T07:48:52.840Z,190
2016-04-25T07:49:52.859Z,185
2016-04-25T07:50:52.799Z,190
2016-04-25T07:51:52.817Z,190
2016-04-25T07:52:52.774Z,200
2016-04-25T07:53:52.760Z,210
2016-04-25T07:54:52.732Z,215
2016-04-25T07:55:52.719Z,260
2016-04-25T07:56:52.706Z,300
2016-04-25T07:57:52.692Z,275
2016-04-25T07:58:52.649Z,335
2016-04-25T07:59:52.667Z,350
2016-04-25T08:00:52.670Z,250
2016-04-25T08:01:52.626Z,215
2016-04-25T08:02:52.612Z,300
2016-04-25T08:03:52.600Z,395
2016-04-25T08:04:52.587Z,465
2016-04-25T08:05:52.574Z,365
2016-04-25T08:06:52.545Z,320
2016-04-25T08:07:52.564Z,225
2016-04-25T08:08:52.503Z,280
2016-04-25T08:09:52.506Z,280
2016-04-25T08:10:52.478Z,260
2016-04-25T08:11:52.450Z,860
2016-04-25T08:12:52.445Z,285
2016-04-25T08:13:52.433Z,250
2016-04-25T08:14:52.982Z,1020
2016-04-25T08:15:52.406Z,1010
2016-04-25T08:16:52.596Z,500
2016-04-25T08:17:52.225Z,275
2016-04-25T08:18:52.352Z,370
2016-04-25T08:19:52.370Z,470
2016-04-25T08:20:52.341Z,1400
2016-04-25T08:21:52.313Z,1520
2016-04-25T08:22:52.301Z,1440
2016-04-25T08:23:52.367Z,735
2016-04-25T08:24:52.275Z,590
2016-04-25T08:25:52.278Z,245
2016-04-25T08:26:52.250Z,185
2016-04-25T08:27:52.252Z,165
2016-04-25T08:28:53.755Z,135
2016-04-25T08:29:52.258Z,150
2016-04-25T08:30:52.214Z,195
2016-04-25T08:31:52.200Z,295
2016-04-25T08:32:51.438Z,500
2016-04-25T08:33:52.174Z,395
2016-04-25T08:34:52.162Z,390
2016-04-25T08:35:52.149Z,555
2016-04-25T08:36:52.136Z,385
2016-04-25T08:37:52.107Z,335
2016-04-25T08:38:52.110Z,255
2016-04-25T08:39:52.113Z,330
2016-04-25T08:40:52.073Z,480
2016-04-25T08:41:52.091Z,910
2016-04-25T08:42:52.048Z,450
2016-04-25T08:43:52.112Z,465
2016-04-25T08:44:52.038Z,665
2016-04-25T08:45:52.009Z,450
2016-04-25T08:46:52.027Z,1340
2016-04-25T08:47:51.982Z,705
2016-04-25T08:48:51.970Z,1215
2016-04-25T08:49:51.988Z,965
2016-04-25T08:50:51.944Z,655
2016-04-25T08:51:51.947Z,340
2016-04-25T08:52:51.950Z,340
2016-04-25T08:53:51.920Z,275
2016-04-25T08:54:51.923Z,265
2016-04-25T08:55:51.895Z,150
2016-04-25T08:56:51.897Z,85
2016-04-25T08:57:51.884Z,75
2016-04-25T08:58:51.747Z,90
2016-04-25T08:59:51.844Z,120
2016-04-25T09:00:51.830Z,160
2016-04-25T09:01:51.817Z,240
2016-04-25T09:02:51.804Z,655
2016-04-25T09:03:51.791Z,650
2016-04-25T09:04:51.778Z,790
2016-04-25T09:05:51.766Z,840
2016-04-25T09:06:51.737Z,1200
2016-04-25T09:07:51.740Z,1240
2016-04-25T09:08:51.711Z,855
2016-04-25T09:09:51.714Z,635
2016-04-25T09:10:51.701Z,690
2016-04-25T09:11:51.672Z,950
2016-04-25T09:12:51.674Z,1050
2016-04-25T09:13:52.459Z,1320
2016-04-25T09:14:51.649Z,1435
2016-04-25T09:15:51.636Z,1485
2016-04-25T09:16:51.627Z,1240
2016-04-25T09:17:51.614Z,800
2016-04-25T09:18:51.602Z,805
2016-04-25T09:19:51.604Z,955
2016-04-25T09:20:51.591Z,1475
2016-04-25T09:21:51.719Z,1580
2016-04-25T09:22:51.566Z,470
2016-04-25T09:23:51.552Z,1495
2016-04-25T09:24:51.649Z,320
2016-04-25T09:25:51.542Z,325
2016-04-25T09:26:51.513Z,1845
2016-04-25T09:27:51.516Z,935
2016-04-25T09:28:52.191Z,1780
2016-04-25T09:29:51.912Z,1375
2016-04-25T09:30:51.477Z,955
2016-04-25T09:31:51.479Z,1240
2016-04-25T09:32:51.468Z,1270
2016-04-25T09:33:51.454Z,1375
2016-04-25T09:34:51.456Z,435
2016-04-25T09:35:51.444Z,405
2016-04-25T09:36:51.431Z,490
2016-04-25T09:37:51.434Z,890
2016-04-25T09:38:51.420Z,895
2016-04-25T09:39:51.408Z,605
2016-04-25T09:40:51.395Z,750
2016-04-25T09:41:51.397Z,470
2016-04-25T09:42:50.650Z,460
2016-04-25T09:43:52.122Z,500
2016-04-25T09:44:52.624Z,390
2016-04-25T09:45:51.377Z,415
2016-04-25T09:46:51.364Z,455
2016-04-25T09:47:51.336Z,985
2016-04-25T09:48:51.338Z,405
2016-04-25T09:49:51.325Z,415
2016-04-25T09:50:51.344Z,515
2016-04-25T09:51:51.315Z,895
2016-04-25T09:52:51.302Z,550
2016-04-25T09:53:51.304Z,450
2016-04-25T09:54:51.291Z,390
2016-04-25T09:55:50.966Z,850
2016-04-25T09:56:51.251Z,1045
2016-04-25T09:57:51.237Z,860
2016-04-25T09:58:51.099Z,1040
2016-04-25T09:59:50.915Z,1075
2016-04-25T10:00:51.215Z,685
2016-04-25T10:01:51.201Z,540
2016-04-25T10:02:51.188Z,815
2016-04-25T10:03:51.175Z,800
2016-04-25T10:04:51.193Z,660
2016-04-25T10:05:51.165Z,665
2016-04-25T10:06:51.168Z,795
2016-04-25T10:07:51.155Z,425
2016-04-25T10:08:51.126Z,460
2016-04-25T10:09:51.129Z,535
2016-04-25T10:10:51.132Z,1075
2016-04-25T10:11:51.103Z,880
2016-04-25T10:12:51.105Z,980
2016-04-25T10:13:51.484Z,630
2016-04-25T10:14:50.956Z,1075
2016-04-25T10:15:51.067Z,1085
2016-04-25T10:16:51.258Z,1045
2016-04-25T10:17:51.072Z,1210
2016-04-25T10:18:51.044Z,530
2016-04-25T10:19:51.016Z,750
2016-04-25T10:20:51.019Z,1150
2016-04-25T10:21:51.036Z,540
2016-04-25T10:22:51.007Z,1365
2016-04-25T10:23:51.010Z,525
2016-04-25T10:24:50.966Z,445
2016-04-25T10:25:50.969Z,440
2016-04-25T10:26:50.941Z,470
2016-04-25T10:27:50.943Z,475
2016-04-25T10:28:52.227Z,500
2016-04-25T10:29:52.308Z,515
2016-04-25T10:30:50.936Z,445
2016-04-25T10:31:50.975Z,505
2016-04-25T10:32:50.618Z,590
2016-04-25T10:33:50.965Z,1695
2016-04-25T10:34:50.800Z,1640
2016-04-25T10:35:50.918Z,1610
2016-04-25T10:36:50.889Z,510
2016-04-25T10:37:50.845Z,475
2016-04-25T10:38:50.848Z,525
2016-04-25T10:39:50.851Z,855
2016-04-25T10:40:50.838Z,305
2016-04-25T10:41:50.825Z,185
2016-04-25T10:42:50.827Z,150
2016-04-25T10:43:50.736Z,145
2016-04-25T10:44:52.223Z,170
2016-04-25T10:45:50.789Z,205
2016-04-25T10:46:50.775Z,210
2016-04-25T10:47:50.809Z,215
2016-04-25T10:48:50.000Z,195
2016-04-25T10:49:50.753Z,190
2016-04-25T10:50:50.739Z,220
2016-04-25T10:51:50.711Z,510
2016-04-25T10:52:50.697Z,345
2016-04-25T10:53:50.716Z,400
2016-04-25T10:54:50.702Z,465
2016-04-25T10:55:50.691Z,625
2016-04-25T10:56:50.662Z,965
2016-04-25T10:57:50.665Z,810
2016-04-25T10:58:50.495Z,535
2016-04-25T10:59:50.249Z,595
2016-04-25T11:00:50.610Z,1305
2016-04-25T11:01:49.847Z,1470
2016-04-25T11:02:50.615Z,1490
2016-04-25T11:03:50.587Z,1515
2016-04-25T11:04:50.574Z,685
2016-04-25T11:05:50.561Z,1115
2016-04-25T11:06:50.548Z,675
2016-04-25T11:07:50.535Z,680
2016-04-25T11:08:50.523Z,525
2016-04-25T11:09:50.540Z,695
2016-04-25T11:10:50.528Z,565
2016-04-25T11:11:50.515Z,940
2016-04-25T11:12:50.486Z,775
2016-04-25T11:13:51.269Z,845
2016-04-25T11:14:50.539Z,660
2016-04-25T11:15:50.463Z,675
2016-04-25T11:16:49.716Z,795
2016-04-25T11:17:50.469Z,550
2016-04-25T11:18:50.440Z,485
2016-04-25T11:19:50.427Z,605
2016-04-25T11:20:50.398Z,965
2016-04-25T11:21:50.417Z,995
2016-04-25T11:22:50.388Z,760
2016-04-25T11:23:50.375Z,815
2016-04-25T11:24:50.362Z,700
2016-04-25T11:25:50.333Z,680
2016-04-25T11:26:50.368Z,665
2016-04-25T11:27:50.339Z,670
2016-04-25T11:28:50.374Z,365
2016-04-25T11:29:50.782Z,295
2016-04-25T11:30:50.316Z,285
2016-04-25T11:31:50.288Z,310
2016-04-25T11:32:50.274Z,345
2016-04-25T11:33:50.324Z,380
2016-04-25T11:34:50.264Z,450
2016-04-25T11:35:50.267Z,720
2016-04-25T11:36:50.535Z,570
2016-04-25T11:37:50.084Z,500
2016-04-25T11:38:50.228Z,600
2016-04-25T11:39:50.231Z,550
2016-04-25T11:40:50.217Z,540
2016-04-25T11:41:50.204Z,485
2016-04-25T11:42:50.207Z,480
2016-04-25T11:43:50.506Z,390
2016-04-25T11:44:49.728Z,320
2016-04-25T11:45:50.153Z,265
2016-04-25T11:46:49.843Z,260
2016-04-25T11:47:50.147Z,270
2016-04-25T11:48:50.139Z,260
2016-04-25T11:49:50.111Z,260
2016-04-25T11:50:50.083Z,265
2016-04-25T11:51:50.101Z,280
2016-04-25T11:52:50.062Z,295
2016-04-25T11:53:50.048Z,310
2016-04-25T11:54:50.035Z,345
2016-04-25T11:55:50.023Z,390
2016-04-25T11:56:50.026Z,365
2016-04-25T11:57:50.029Z,305
2016-04-25T11:58:49.921Z,235
2016-04-25T11:59:50.440Z,220
2016-04-25T12:00:49.958Z,245
2016-04-25T12:01:49.976Z,280
2016-04-25T12:02:49.979Z,320
2016-04-25T12:03:49.935Z,365
2016-04-25T12:04:49.922Z,425
2016-04-25T12:05:49.909Z,560
2016-04-25T12:06:49.895Z,505
2016-04-25T12:07:49.867Z,520
2016-04-25T12:08:49.870Z,445
2016-04-25T12:09:49.889Z,365
2016-04-25T12:10:49.828Z,310
2016-04-25T12:11:49.831Z,260
2016-04-25T12:12:49.803Z,205
2016-04-25T12:13:50.227Z,150
2016-04-25T12:14:49.667Z,110
2016-04-25T12:15:49.763Z,80
2016-04-25T12:16:50.360Z,60
2016-04-25T12:17:49.738Z,55
2016-04-25T12:18:49.741Z,60
2016-04-25T12:19:49.713Z,70
2016-04-25T12:20:49.699Z,95
2016-04-25T12:21:49.546Z,140
2016-04-25T12:22:49.674Z,170
2016-04-25T12:23:49.676Z,190
2016-04-25T12:24:49.632Z,200
2016-04-25T12:25:49.635Z,205
2016-04-25T12:26:49.606Z,195
2016-04-25T12:27:49.593Z,180
2016-04-25T12:28:49.580Z,160
2016-04-25T12:29:50.037Z,160
2016-04-25T12:30:49.554Z,175
2016-04-25T12:31:49.557Z,205
2016-04-25T12:32:49.545Z,235
2016-04-25T12:33:49.515Z,270
2016-04-25T12:34:49.503Z,295
2016-04-25T12:35:49.489Z,310
2016-04-25T12:36:49.461Z,320
2016-04-25T12:37:49.464Z,325
2016-04-25T12:38:49.450Z,335
2016-04-25T12:39:49.438Z,355
2016-04-25T12:40:49.644Z,365
2016-04-25T12:41:49.444Z,375
2016-04-25T12:42:49.383Z,375
2016-04-25T12:43:49.370Z,365
2016-04-25T12:44:50.436Z,335
2016-04-25T12:45:49.344Z,315
2016-04-25T12:46:49.333Z,305
2016-04-25T12:47:49.319Z,305
2016-04-25T12:48:49.321Z,300
2016-04-25T12:49:49.637Z,295
2016-04-25T12:50:49.264Z,280
2016-04-25T12:51:49.282Z,275
2016-04-25T12:52:49.254Z,270
2016-04-25T12:53:49.241Z,265
2016-04-25T12:54:49.212Z,255
2016-04-25T12:55:49.232Z,240
2016-04-25T12:56:49.176Z,235
2016-04-25T12:57:49.163Z,235
2016-04-25T12:58:49.151Z,240
2016-04-25T12:59:50.184Z,245
2016-04-25T13:00:49.140Z,245
2016-04-25T13:01:49.143Z,240
2016-04-25T13:02:49.129Z,235
2016-04-25T13:03:49.086Z,195
2016-04-25T13:04:49.073Z,185
2016-04-25T13:05:49.059Z,195
2016-04-25T13:06:49.047Z,195
2016-04-25T13:07:49.034Z,210
2016-04-25T13:08:49.006Z,220
2016-04-25T13:09:48.992Z,210
2016-04-25T13:10:48.995Z,195
2016-04-25T13:11:48.967Z,185
2016-04-25T13:12:48.953Z,190
2016-04-25T13:13:48.940Z,175
2016-04-25T13:14:49.319Z,135
2016-04-25T13:15:48.915Z,120
2016-04-25T13:16:48.917Z,110
2016-04-25T13:17:48.927Z,105
2016-04-25T13:18:48.882Z,95
2016-04-25T13:19:48.854Z,90
2016-04-25T13:20:48.826Z,95
2016-04-25T13:21:48.578Z,105
2016-04-25T13:22:48.815Z,115
2016-04-25T13:23:48.787Z,135
2016-04-25T13:24:48.773Z,155
2016-04-25T13:25:48.761Z,200
2016-04-25T13:26:48.733Z,200
2016-04-25T13:27:48.750Z,205
2016-04-25T13:28:48.722Z,200
2016-04-25T13:29:49.319Z,195
2016-04-25T13:30:48.712Z,180
2016-04-25T13:31:48.699Z,170
2016-04-25T13:32:48.686Z,160
2016-04-25T13:33:48.658Z,145
2016-04-25T13:34:48.630Z,145
2016-04-25T13:35:48.632Z,140
2016-04-25T13:36:48.602Z,140
2016-04-25T13:37:48.575Z,140
2016-04-25T13:38:48.593Z,145
2016-04-25T13:39:48.549Z,150
2016-04-25T13:40:48.552Z,150
2016-04-25T13:41:48.538Z,140
2016-04-25T13:42:48.510Z,120
2016-04-25T13:43:48.513Z,105
2016-04-25T13:44:49.016Z,90
2016-04-25T13:45:48.502Z,70
2016-04-25T13:46:48.442Z,75
2016-04-25T13:47:48.429Z,65
2016-04-25T13:48:48.432Z,65
2016-04-25T13:49:48.404Z,75
2016-04-25T13:50:48.376Z,80
2016-04-25T13:51:48.393Z,90
2016-04-25T13:52:48.349Z,90
2016-04-25T13:53:48.336Z,95
2016-04-25T13:54:48.308Z,115
2016-04-25T13:55:48.295Z,135
2016-04-25T13:56:48.297Z,145
2016-04-25T13:57:48.300Z,170
2016-04-25T13:58:48.256Z,190
2016-04-25T13:59:48.978Z,185
2016-04-25T14:00:48.246Z,175
2016-04-25T14:01:48.222Z,160
2016-04-25T14:02:48.241Z,145
2016-04-25T14:03:48.181Z,140
2016-04-25T14:04:47.839Z,140
2016-04-25T14:05:48.155Z,145